Station Historical Data
Daily Summary for April 2, 2017 Units:  English    Metric   Both
Next Day »
Daily Weekly Monthly Yearly Custom
  High: Low: Average:
Temperature: 68.1 °F 49.7 °F 57.8 °F
Dew Point: 52.0 °F 40.0 °F 44.4 °F
Humidity: 76% 46% 62%
Wind Speed: 13.0mph 0.0mph 1.9mph
Wind Gust: 20.0mph - -
Wind- - SSW
Pressure: 30.06 in 29.92 in -
Precipitation: 0.00 in    
Historical Graphs
 
 
Tabular Data for April 2, 2017
Time Temperature Dew Point Pressure Wind Wind Speed Wind Gust Humidity Rainfall Rate (Hourly) solar Conditions
00:03 53.5 °F 46.1 °F 30.03 in ESE 1.0 mph 8.0 mph 76% 0.00 in 0.00 W/m2
00:08 53.4 °F 45.7 °F 30.02 in ESE 6.0 mph 6.0 mph 75% 0.00 in 0.00 W/m2
00:13 53.3 °F 45.6 °F 30.02 in ESE 1.0 mph 5.0 mph 75% 0.00 in 0.00 W/m2
00:18 53.2 °F 45.5 °F 30.02 in ESE 1.0 mph 7.0 mph 75% 0.00 in 0.00 W/m2
00:23 53.2 °F 45.1 °F 30.02 in ESE 1.0 mph 6.0 mph 74% 0.00 in 0.00 W/m2
00:28 53.1 °F 45.4 °F 30.01 in Calm   7.0 mph 75% 0.00 in 0.00 W/m2
00:33 53.1 °F 45.4 °F 30.01 in Calm   8.0 mph 75% 0.00 in 0.00 W/m2
00:38 53.0 °F 45.3 °F 30.01 in Calm   11.0 mph 75% 0.00 in 0.00 W/m2
00:44 52.9 °F 45.2 °F 30.01 in ESE 4.0 mph 15.0 mph 75% 0.00 in 0.00 W/m2
00:49 52.8 °F 45.1 °F 30.01 in Calm   11.0 mph 75% 0.00 in 0.00 W/m2
00:54 52.8 °F 45.1 °F 30.02 in ESE 5.0 mph 8.0 mph 75% 0.00 in 0.00 W/m2
00:59 52.8 °F 44.8 °F 30.02 in ESE 1.0 mph 6.0 mph 74% 0.00 in 0.00 W/m2
01:04 52.7 °F 44.7 °F 30.01 in ESE 5.0 mph 6.0 mph 74% 0.00 in 0.00 W/m2
01:09 52.7 °F 44.7 °F 30.02 in ESE 2.0 mph 7.0 mph 74% 0.00 in 0.00 W/m2
01:14 52.7 °F 44.7 °F 30.02 in Calm   6.0 mph 74% 0.00 in 0.00 W/m2
01:19 52.7 °F 44.3 °F 30.02 in Calm   6.0 mph 73% 0.00 in 0.00 W/m2
01:24 52.6 °F 44.2 °F 30.03 in Calm   5.0 mph 73% 0.00 in 0.00 W/m2
01:29 52.6 °F 43.8 °F 30.03 in ESE 1.0 mph 5.0 mph 72% 0.00 in 0.00 W/m2
01:34 52.5 °F 43.8 °F 30.03 in Calm   2.0 mph 72% 0.00 in 0.00 W/m2
01:39 52.5 °F 43.8 °F 30.03 in Calm     72% 0.00 in 0.00 W/m2
01:44 52.4 °F 43.7 °F 30.03 in Calm     72% 0.00 in 0.00 W/m2
01:49 52.4 °F 43.3 °F 30.03 in Calm     71% 0.00 in 0.00 W/m2
01:54 52.3 °F 43.5 °F 30.04 in Calm     72% 0.00 in 0.00 W/m2
01:59 52.3 °F 43.2 °F 30.04 in Calm     71% 0.00 in 0.00 W/m2
02:04 52.2 °F 43.1 °F 30.04 in Calm     71% 0.00 in 0.00 W/m2
02:09 52.1 °F 43.4 °F 30.04 in Calm     72% 0.00 in 0.00 W/m2
02:14 52.1 °F 43.4 °F 30.04 in Calm     72% 0.00 in 0.00 W/m2
02:19 51.9 °F 43.2 °F 30.05 in Calm     72% 0.00 in 0.00 W/m2
02:24 51.9 °F 43.2 °F 30.04 in Calm   5.0 mph 72% 0.00 in 0.00 W/m2
02:29 51.7 °F 42.6 °F 30.04 in ESE 1.0 mph 7.0 mph 71% 0.00 in 0.00 W/m2
02:34 51.7 °F 43.0 °F 30.04 in ESE 5.0 mph 8.0 mph 72% 0.00 in 0.00 W/m2
02:39 51.7 °F 43.0 °F 30.03 in Calm   8.0 mph 72% 0.00 in 0.00 W/m2
02:44 51.6 °F 43.2 °F 30.04 in Calm   7.0 mph 73% 0.00 in 0.00 W/m2
02:49 51.5 °F 42.8 °F 30.04 in ESE 2.0 mph 11.0 mph 72% 0.00 in 0.00 W/m2
02:54 51.4 °F 42.7 °F 30.03 in ESE 1.0 mph 8.0 mph 72% 0.00 in 0.00 W/m2
02:59 51.3 °F 42.6 °F 30.03 in Calm   13.0 mph 72% 0.00 in 0.00 W/m2
03:04 51.3 °F 42.6 °F 30.03 in ESE 7.0 mph 12.0 mph 72% 0.00 in 0.00 W/m2
03:09 51.2 °F 42.1 °F 30.03 in East 6.0 mph 14.0 mph 71% 0.00 in 0.00 W/m2
03:14 51.1 °F 41.7 °F 30.03 in East 2.0 mph 11.0 mph 70% 0.00 in 0.00 W/m2
03:19 51.1 °F 42.4 °F 30.03 in ESE 1.0 mph 12.0 mph 72% 0.00 in 0.00 W/m2
03:25 51.1 °F 41.3 °F 30.04 in East 2.0 mph 9.0 mph 69% 0.00 in 0.00 W/m2
03:30 51.1 °F 41.7 °F 30.03 in ESE 1.0 mph 8.0 mph 70% 0.00 in 0.00 W/m2
03:35 51.1 °F 41.3 °F 30.03 in East 1.0 mph 7.0 mph 69% 0.00 in 0.00 W/m2
03:40 51.1 °F 41.3 °F 30.03 in ESE 2.0 mph 7.0 mph 69% 0.00 in 0.00 W/m2
03:45 51.1 °F 41.3 °F 30.03 in ESE 7.0 mph 8.0 mph 69% 0.00 in 0.00 W/m2
03:50 51.0 °F 41.2 °F 30.03 in Calm   7.0 mph 69% 0.00 in 0.00 W/m2
03:55 51.0 °F 41.2 °F 30.03 in Calm   6.0 mph 69% 0.00 in 0.00 W/m2
04:00 51.0 °F 41.2 °F 30.03 in Calm   7.0 mph 69% 0.00 in 0.00 W/m2
04:05 50.9 °F 41.1 °F 30.03 in East 1.0 mph 11.0 mph 69% 0.00 in 0.00 W/m2
04:10 50.9 °F 40.7 °F 30.03 in Calm   7.0 mph 68% 0.00 in 0.00 W/m2
04:15 50.8 °F 40.6 °F 30.03 in Calm   7.0 mph 68% 0.00 in 0.00 W/m2
04:20 50.8 °F 40.6 °F 30.03 in ESE 6.0 mph 9.0 mph 68% 0.00 in 0.00 W/m2
04:25 50.9 °F 41.1 °F 30.03 in ESE 2.0 mph 10.0 mph 69% 0.00 in 0.00 W/m2
04:30 50.8 °F 41.0 °F 30.03 in ESE 8.0 mph 9.0 mph 69% 0.00 in 0.00 W/m2
04:34 50.8 °F 41.0 °F 30.03 in Calm   6.0 mph 69% 0.00 in 0.00 W/m2
04:39 50.8 °F 41.0 °F 30.04 in Calm   6.0 mph 69% 0.00 in 0.00 W/m2
04:44 50.7 °F 40.9 °F 30.04 in Calm   9.0 mph 69% 0.00 in 0.00 W/m2
04:49 50.7 °F 40.5 °F 30.04 in ESE 1.0 mph 5.0 mph 68% 0.00 in 0.00 W/m2
04:54 50.6 °F 40.4 °F 30.04 in East 2.0 mph 6.0 mph 68% 0.00 in 0.00 W/m2
04:59 50.6 °F 40.8 °F 30.04 in East 2.0 mph 4.0 mph 69% 0.00 in 0.00 W/m2
05:04 50.5 °F 40.3 °F 30.04 in Calm   6.0 mph 68% 0.00 in 0.00 W/m2
05:09 50.5 °F 40.7 °F 30.04 in East 4.0 mph 5.0 mph 69% 0.00 in 0.00 W/m2
05:14 50.4 °F 41.0 °F 30.04 in Calm   2.0 mph 70% 0.00 in 0.00 W/m2
05:19 50.3 °F 40.2 °F 30.04 in Calm   5.0 mph 68% 0.00 in 0.00 W/m2
05:24 50.3 °F 40.5 °F 30.04 in East 1.0 mph 1.0 mph 69% 0.00 in 0.00 W/m2
05:29 50.3 °F 40.5 °F 30.04 in East 1.0 mph 4.0 mph 69% 0.00 in 0.00 W/m2
05:34 50.2 °F 40.8 °F 30.04 in Calm   7.0 mph 70% 0.00 in 0.00 W/m2
05:39 50.2 °F 40.4 °F 30.05 in ESE 4.0 mph 5.0 mph 69% 0.00 in 0.00 W/m2
05:44 50.1 °F 40.0 °F 30.05 in Calm   6.0 mph 68% 0.00 in 0.00 W/m2
05:49 50.1 °F 40.3 °F 30.05 in ESE 7.0 mph 7.0 mph 69% 0.00 in 0.00 W/m2
05:54 50.1 °F 40.3 °F 30.05 in ESE 7.0 mph 7.0 mph 69% 0.00 in 0.00 W/m2
05:59 50.1 °F 40.3 °F 30.05 in ESE 2.0 mph 7.0 mph 69% 0.00 in 0.00 W/m2
06:05 50.0 °F 40.2 °F 30.05 in Calm   8.0 mph 69% 0.00 in 0.00 W/m2
06:10 50.0 °F 40.2 °F 30.05 in East 2.0 mph 7.0 mph 69% 0.00 in 0.00 W/m2
06:15 49.9 °F 40.5 °F 30.05 in Calm   6.0 mph 70% 0.00 in 0.00 W/m2
06:20 49.9 °F 40.5 °F 30.05 in East 1.0 mph 8.0 mph 70% 0.00 in 0.00 W/m2
06:25 49.8 °F 40.4 °F 30.05 in East 2.0 mph 9.0 mph 70% 0.00 in 0.00 W/m2
06:30 49.8 °F 40.4 °F 30.05 in East 5.0 mph 6.0 mph 70% 0.00 in 0.00 W/m2
06:35 49.8 °F 40.8 °F 30.05 in Calm   9.0 mph 71% 0.00 in 0.00 W/m2
06:40 49.7 °F 40.3 °F 30.05 in East 2.0 mph 7.0 mph 70% 0.00 in 0.00 W/m2
06:45 49.7 °F 40.3 °F 30.06 in Calm   7.0 mph 70% 0.00 in 5.00 W/m2
06:50 49.7 °F 40.0 °F 30.06 in Calm   5.0 mph 69% 0.00 in 9.00 W/m2
06:55 49.7 °F 40.3 °F 30.06 in ESE 5.0 mph 7.0 mph 70% 0.00 in 11.00 W/m2
07:00 49.7 °F 40.3 °F 30.06 in Calm   9.0 mph 70% 0.00 in 14.00 W/m2
07:05 49.7 °F 40.3 °F 30.06 in East 4.0 mph 7.0 mph 70% 0.00 in 18.00 W/m2
07:10 49.7 °F 40.3 °F 30.06 in East 4.0 mph 6.0 mph 70% 0.00 in 21.00 W/m2
07:15 49.7 °F 40.7 °F 30.06 in Calm   6.0 mph 71% 0.00 in 30.00 W/m2
07:20 49.7 °F 40.7 °F 30.05 in East 2.0 mph 8.0 mph 71% 0.00 in 39.00 W/m2
07:25 49.7 °F 40.7 °F 30.06 in Calm   7.0 mph 71% 0.00 in 56.00 W/m2
07:30 49.7 °F 40.3 °F 30.05 in Calm   7.0 mph 70% 0.00 in 72.00 W/m2
07:35 49.7 °F 40.7 °F 30.05 in East 1.0 mph 9.0 mph 71% 0.00 in 88.00 W/m2
07:40 49.7 °F 40.7 °F 30.05 in ESE 4.0 mph 8.0 mph 71% 0.00 in 102.00 W/m2
07:45 49.8 °F 40.4 °F 30.05 in ESE 6.0 mph 9.0 mph 70% 0.00 in 123.00 W/m2
07:50 49.8 °F 40.4 °F 30.05 in Calm   9.0 mph 70% 0.00 in 141.00 W/m2
07:55 49.9 °F 40.9 °F 30.05 in East 6.0 mph 11.0 mph 71% 0.00 in 165.00 W/m2
08:00 50.0 °F 40.6 °F 30.05 in ESE 2.0 mph 11.0 mph 70% 0.00 in 185.00 W/m2
08:05 50.1 °F 41.1 °F 30.05 in East 5.0 mph 8.0 mph 71% 0.00 in 209.00 W/m2
08:10 50.3 °F 41.3 °F 30.05 in East 6.0 mph 9.0 mph 71% 0.00 in 232.00 W/m2
08:15 50.4 °F 41.4 °F 30.05 in ESE 1.0 mph 8.0 mph 71% 0.00 in 255.00 W/m2
08:20 50.5 °F 41.5 °F 30.06 in ESE 4.0 mph 7.0 mph 71% 0.00 in 274.00 W/m2
08:25 50.6 °F 41.9 °F 30.06 in ESE 2.0 mph 8.0 mph 72% 0.00 in 295.00 W/m2
08:26 50.7 °F 41.7 °F 30.06 in East 6.0 mph 7.0 mph 71% 0.00 in 302.00 W/m2
08:30 50.8 °F 42.1 °F 30.06 in Calm   7.0 mph 72% 0.00 in 318.00 W/m2
08:35 51.0 °F 42.7 °F 30.06 in East 2.0 mph 7.0 mph 73% 0.00 in 332.00 W/m2
08:40 51.1 °F 42.4 °F 30.06 in East 4.0 mph 6.0 mph 72% 0.00 in 350.00 W/m2
08:45 51.3 °F 43.0 °F 30.06 in East 5.0 mph 5.0 mph 73% 0.00 in 369.00 W/m2
08:50 51.5 °F 43.1 °F 30.06 in Calm   6.0 mph 73% 0.00 in 387.00 W/m2
08:51 51.5 °F 43.1 °F 30.06 in Calm   6.0 mph 73% 0.00 in 387.00 W/m2
08:56 51.7 °F 43.3 °F 30.06 in Calm   4.0 mph 73% 0.00 in 403.00 W/m2
09:01 52.0 °F 43.3 °F 30.06 in Calm     72% 0.00 in 420.00 W/m2
09:06 52.6 °F 43.1 °F 30.06 in Calm     70% 0.00 in 438.00 W/m2
09:11 53.1 °F 44.0 °F 30.06 in Calm     71% 0.00 in 457.00 W/m2
09:16 53.6 °F 43.7 °F 30.06 in Calm     69% 0.00 in 480.00 W/m2
09:21 54.2 °F 44.6 °F 30.06 in Calm     70% 0.00 in 492.00 W/m2
09:26 54.8 °F 44.1 °F 30.06 in Calm     67% 0.00 in 504.00 W/m2
09:31 55.3 °F 43.8 °F 30.06 in Calm   1.0 mph 65% 0.00 in 520.00 W/m2
09:36 55.7 °F 44.5 °F 30.06 in Calm     66% 0.00 in 534.00 W/m2
09:41 56.0 °F 42.8 °F 30.05 in East 1.0 mph 4.0 mph 61% 0.00 in 550.00 W/m2
09:46 56.4 °F 43.6 °F 30.06 in East 5.0 mph 5.0 mph 62% 0.00 in 564.00 W/m2
09:51 56.8 °F 44.8 °F 30.06 in East 1.0 mph 5.0 mph 64% 0.00 in 580.00 W/m2
09:56 57.1 °F 43.4 °F 30.05 in Calm   6.0 mph 60% 0.00 in 592.00 W/m2
10:01 57.5 °F 45.4 °F 30.05 in East 2.0 mph 2.0 mph 64% 0.00 in 610.00 W/m2
10:06 57.8 °F 44.0 °F 30.05 in Calm   4.0 mph 60% 0.00 in 624.00 W/m2
10:11 58.1 °F 44.7 °F 30.05 in North 3.0 mph 5.0 mph 61% 0.00 in 631.00 W/m2
10:16 58.4 °F 43.2 °F 30.05 in NNW 2.0 mph 2.0 mph 57% 0.00 in 649.00 W/m2
10:21 58.7 °F 43.1 °F 30.05 in NW 3.0 mph 3.0 mph 56% 0.00 in 666.00 W/m2
10:26 59.0 °F 43.3 °F 30.05 in Calm   3.0 mph 56% 0.00 in 675.00 W/m2
10:31 59.2 °F 42.6 °F 30.05 in NW 3.0 mph 3.0 mph 54% 0.00 in 686.00 W/m2
10:36 59.5 °F 43.8 °F 30.05 in NW 3.0 mph 4.0 mph 56% 0.00 in 700.00 W/m2
10:41 59.8 °F 43.6 °F 30.05 in Calm   2.0 mph 55% 0.00 in 712.00 W/m2
10:46 60.1 °F 43.4 °F 30.05 in NW 6.0 mph 7.0 mph 54% 0.00 in 724.00 W/m2
10:51 60.4 °F 43.7 °F 30.06 in NW 4.0 mph 4.0 mph 54% 0.00 in 735.00 W/m2
10:56 60.6 °F 43.4 °F 30.05 in WNW 3.0 mph 5.0 mph 53% 0.00 in 744.00 W/m2
11:01 60.8 °F 44.1 °F 30.06 in WNW 2.0 mph 4.0 mph 54% 0.00 in 756.00 W/m2
11:03 60.8 °F 43.1 °F 30.05 in Calm   4.0 mph 52% 0.00 in 759.00 W/m2
11:08 61.0 °F 44.2 °F 30.05 in Calm   6.0 mph 54% 0.00 in 770.00 W/m2
11:13 61.3 °F 45.0 °F 30.05 in Calm   5.0 mph 55% 0.00 in 779.00 W/m2
11:18 61.5 °F 44.7 °F 30.05 in Calm   5.0 mph 54% 0.00 in 788.00 W/m2
11:23 61.7 °F 43.9 °F 30.05 in West 3.0 mph 7.0 mph 52% 0.00 in 795.00 W/m2
11:28 61.9 °F 44.6 °F 30.04 in WSW 5.0 mph 6.0 mph 53% 0.00 in 805.00 W/m2
11:33 62.1 °F 43.8 °F 30.05 in NW 3.0 mph 6.0 mph 51% 0.00 in 812.00 W/m2
11:38 62.5 °F 44.2 °F 30.04 in Calm   3.0 mph 51% 0.00 in 823.00 W/m2
11:44 62.8 °F 44.4 °F 30.05 in NW 4.0 mph 9.0 mph 51% 0.00 in 828.00 W/m2
11:49 63.1 °F 43.1 °F 30.04 in West 6.0 mph 6.0 mph 48% 0.00 in 833.00 W/m2
11:54 63.5 °F 44.0 °F 30.04 in West 4.0 mph 7.0 mph 49% 0.00 in 838.00 W/m2
11:59 63.8 °F 43.8 °F 30.04 in WNW 2.0 mph 10.0 mph 48% 0.00 in 844.00 W/m2
12:04 64.1 °F 43.5 °F 30.04 in NNW 1.0 mph 4.0 mph 47% 0.00 in 851.00 W/m2
12:09 64.4 °F 43.2 °F 30.04 in Calm   3.0 mph 46% 0.00 in 856.00 W/m2
12:14 64.7 °F 44.6 °F 30.03 in West 3.0 mph 8.0 mph 48% 0.00 in 861.00 W/m2
12:19 65.1 °F 46.0 °F 30.03 in NNW 2.0 mph 6.0 mph 50% 0.00 in 863.00 W/m2
12:24 65.3 °F 45.1 °F 30.03 in Calm   8.0 mph 48% 0.00 in 867.00 W/m2
12:29 65.6 °F 46.0 °F 30.03 in NW 7.0 mph 8.0 mph 49% 0.00 in 872.00 W/m2
12:34 65.8 °F 46.1 °F 30.03 in NW 1.0 mph 7.0 mph 49% 0.00 in 872.00 W/m2
12:39 65.9 °F 46.2 °F 30.02 in WNW 5.0 mph 5.0 mph 49% 0.00 in 875.00 W/m2
12:44 66.0 °F 46.3 °F 30.02 in WNW 2.0 mph 6.0 mph 49% 0.00 in 872.00 W/m2
12:49 66.3 °F 46.6 °F 30.02 in NW 6.0 mph 8.0 mph 49% 0.00 in 877.00 W/m2
12:54 66.6 °F 46.9 °F 30.02 in West 5.0 mph 9.0 mph 49% 0.00 in 875.00 W/m2
12:59 66.6 °F 46.3 °F 30.02 in West 3.0 mph 4.0 mph 48% 0.00 in 882.00 W/m2
13:04 66.8 °F 47.0 °F 30.02 in WNW 3.0 mph 6.0 mph 49% 0.00 in 879.00 W/m2
13:09 67.2 °F 46.9 °F 30.02 in WNW 4.0 mph 7.0 mph 48% 0.00 in 877.00 W/m2
13:14 67.6 °F 48.3 °F 30.01 in SW 6.0 mph 8.0 mph 50% 0.00 in 875.00 W/m2
13:19 67.7 °F 48.4 °F 30.01 in NW 2.0 mph 10.0 mph 50% 0.00 in 875.00 W/m2
13:24 67.5 °F 49.3 °F 30.01 in WNW 6.0 mph 7.0 mph 52% 0.00 in 872.00 W/m2
13:29 67.5 °F 49.8 °F 30.01 in WNW 6.0 mph 10.0 mph 53% 0.00 in 868.00 W/m2
13:34 67.6 °F 49.9 °F 30.01 in Calm   6.0 mph 53% 0.00 in 867.00 W/m2
13:39 67.7 °F 49.5 °F 30.01 in WNW 10.0 mph 12.0 mph 52% 0.00 in 865.00 W/m2
13:44 67.9 °F 50.2 °F 30.01 in WNW 2.0 mph 7.0 mph 53% 0.00 in 858.00 W/m2
13:49 68.0 °F 50.2 °F 30.01 in Calm   9.0 mph 53% 0.00 in 856.00 W/m2
13:54 68.1 °F 50.8 °F 30.01 in WNW 7.0 mph 11.0 mph 54% 0.00 in 851.00 W/m2
13:59 68.0 °F 50.8 °F 30.01 in West 4.0 mph 6.0 mph 54% 0.00 in 847.00 W/m2
14:04 67.9 °F 51.2 °F 30.01 in WNW 7.0 mph 13.0 mph 55% 0.00 in 840.00 W/m2
14:09 67.8 °F 50.6 °F 30.01 in WNW 2.0 mph 13.0 mph 54% 0.00 in 835.00 W/m2
14:14 67.7 °F 51.0 °F 30.00 in NW 6.0 mph 8.0 mph 55% 0.00 in 830.00 W/m2
14:19 67.4 °F 50.2 °F 30.00 in WNW 5.0 mph 14.0 mph 54% 0.00 in 823.00 W/m2
14:24 67.6 °F 50.9 °F 30.00 in WNW 1.0 mph 7.0 mph 55% 0.00 in 816.00 W/m2
14:29 67.6 °F 50.9 °F 30.00 in NW 3.0 mph 8.0 mph 55% 0.00 in 807.00 W/m2
14:34 67.7 °F 51.0 °F 30.00 in WNW 6.0 mph 9.0 mph 55% 0.00 in 798.00 W/m2
14:39 67.6 °F 50.9 °F 29.99 in NNW 8.0 mph 15.0 mph 55% 0.00 in 795.00 W/m2
14:44 67.4 °F 50.7 °F 30.00 in NW 4.0 mph 6.0 mph 55% 0.00 in 784.00 W/m2
14:49 67.3 °F 51.6 °F 29.99 in WNW 4.0 mph 9.0 mph 57% 0.00 in 779.00 W/m2
14:54 67.6 °F 51.8 °F 29.99 in West 4.0 mph 12.0 mph 57% 0.00 in 766.00 W/m2
14:59 67.6 °F 51.4 °F 29.99 in NNW 8.0 mph 14.0 mph 56% 0.00 in 756.00 W/m2
15:04 67.6 °F 51.8 °F 29.99 in NW 4.0 mph 11.0 mph 57% 0.00 in 745.00 W/m2
15:09 67.5 °F 51.3 °F 29.99 in Calm   12.0 mph 56% 0.00 in 735.00 W/m2
15:14 67.4 °F 51.7 °F 29.99 in NW 1.0 mph 12.0 mph 57% 0.00 in 724.00 W/m2
15:20 67.3 °F 52.0 °F 29.98 in West 7.0 mph 9.0 mph 58% 0.00 in 717.00 W/m2
15:25 67.3 °F 51.1 °F 29.99 in WNW 6.0 mph 14.0 mph 56% 0.00 in 705.00 W/m2
15:30 67.1 °F 50.4 °F 29.99 in NW 2.0 mph 12.0 mph 55% 0.00 in 694.00 W/m2
15:35 66.8 °F 50.1 °F 29.99 in NNW 7.0 mph 20.0 mph 55% 0.00 in 684.00 W/m2
15:40 66.7 °F 50.5 °F 29.98 in Calm   16.0 mph 56% 0.00 in 671.00 W/m2
15:45 66.7 °F 50.5 °F 29.98 in NW 2.0 mph 12.0 mph 56% 0.00 in 649.00 W/m2
15:50 66.8 °F 51.1 °F 29.98 in WNW 2.0 mph 13.0 mph 57% 0.00 in 640.00 W/m2
15:55 66.8 °F 51.1 °F 29.98 in WNW 7.0 mph 16.0 mph 57% 0.00 in 633.00 W/m2
16:00 67.0 °F 51.3 °F 29.98 in NW 10.0 mph 14.0 mph 57% 0.00 in 615.00 W/m2
16:05 67.1 °F 51.8 °F 29.98 in NW 2.0 mph 16.0 mph 58% 0.00 in 605.00 W/m2
16:10 67.1 °F 50.9 °F 29.98 in Calm   12.0 mph 56% 0.00 in 587.00 W/m2
16:15 67.0 °F 51.3 °F 29.98 in NW 13.0 mph 13.0 mph 57% 0.00 in 570.00 W/m2
16:21 67.1 °F 51.8 °F 29.97 in NW 4.0 mph 8.0 mph 58% 0.00 in 561.00 W/m2
16:26 67.2 °F 51.5 °F 29.97 in West 1.0 mph 12.0 mph 57% 0.00 in 547.00 W/m2
16:31 67.3 °F 51.6 °F 29.97 in Calm   9.0 mph 57% 0.00 in 534.00 W/m2
16:36 67.4 °F 51.7 °F 29.97 in NW 3.0 mph 13.0 mph 57% 0.00 in 517.00 W/m2
16:41 67.4 °F 49.7 °F 29.97 in WNW 1.0 mph 11.0 mph 53% 0.00 in 504.00 W/m2
16:46 67.4 °F 49.7 °F 29.97 in Calm   10.0 mph 53% 0.00 in 487.00 W/m2
16:51 67.4 °F 50.2 °F 29.96 in NW 6.0 mph 8.0 mph 54% 0.00 in 475.00 W/m2
16:56 67.3 °F 48.6 °F 29.96 in Calm   12.0 mph 51% 0.00 in 457.00 W/m2
17:01 67.4 °F 49.7 °F 29.96 in Calm   9.0 mph 53% 0.00 in 439.00 W/m2
17:06 67.4 °F 48.7 °F 29.96 in WNW 6.0 mph 10.0 mph 51% 0.00 in 420.00 W/m2
17:07 67.4 °F 48.7 °F 29.96 in WNW 4.0 mph 12.0 mph 51% 0.00 in 415.00 W/m2
17:12 67.3 °F 48.0 °F 29.96 in Calm   8.0 mph 50% 0.00 in 399.00 W/m2
17:17 67.2 °F 47.4 °F 29.96 in West 6.0 mph 8.0 mph 49% 0.00 in 385.00 W/m2
17:22 67.1 °F 47.9 °F 29.95 in WNW 1.0 mph 14.0 mph 50% 0.00 in 367.00 W/m2
17:27 67.1 °F 48.4 °F 29.95 in NW 5.0 mph 9.0 mph 51% 0.00 in 350.00 W/m2
17:32 67.1 °F 47.3 °F 29.95 in Calm   7.0 mph 49% 0.00 in 336.00 W/m2
17:37 67.1 °F 46.2 °F 29.95 in WNW 5.0 mph 9.0 mph 47% 0.00 in 315.00 W/m2
17:42 67.1 °F 46.2 °F 29.95 in Calm   6.0 mph 47% 0.00 in 302.00 W/m2
17:47 67.1 °F 46.8 °F 29.95 in NNW 7.0 mph 7.0 mph 48% 0.00 in 285.00 W/m2
17:52 67.0 °F 46.7 °F 29.95 in Calm   6.0 mph 48% 0.00 in 269.00 W/m2
17:57 66.9 °F 46.6 °F 29.95 in NW 3.0 mph 7.0 mph 48% 0.00 in 251.00 W/m2
18:02 66.8 °F 45.4 °F 29.95 in NNW 1.0 mph 8.0 mph 46% 0.00 in 234.00 W/m2
18:07 66.7 °F 45.8 °F 29.94 in Calm   3.0 mph 47% 0.00 in 220.00 W/m2
18:12 66.6 °F 45.2 °F 29.95 in NW 2.0 mph 4.0 mph 46% 0.00 in 195.00 W/m2
18:17 66.4 °F 45.6 °F 29.94 in Calm   4.0 mph 47% 0.00 in 174.00 W/m2
18:22 66.3 °F 45.5 °F 29.94 in Calm   3.0 mph 47% 0.00 in 155.00 W/m2
18:27 66.1 °F 46.4 °F 29.94 in Calm   5.0 mph 49% 0.00 in 134.00 W/m2
18:33 66.0 °F 45.2 °F 29.93 in Calm   6.0 mph 47% 0.00 in 111.00 W/m2
18:38 65.9 °F 47.3 °F 29.93 in NW 1.0 mph 7.0 mph 51% 0.00 in 93.00 W/m2
18:40 65.8 °F 46.7 °F 29.93 in NW 4.0 mph 7.0 mph 50% 0.00 in 86.00 W/m2
18:45 65.5 °F 48.4 °F 29.93 in Calm   6.0 mph 54% 0.00 in 69.00 W/m2
18:50 65.3 °F 47.8 °F 29.93 in Calm   1.0 mph 53% 0.00 in 53.00 W/m2
18:55 64.9 °F 47.4 °F 29.93 in Calm   3.0 mph 53% 0.00 in 40.00 W/m2
19:00 64.5 °F 47.0 °F 29.93 in Calm   4.0 mph 53% 0.00 in 30.00 W/m2
19:05 64.0 °F 46.5 °F 29.93 in Calm   4.0 mph 53% 0.00 in 21.00 W/m2
19:10 63.7 °F 46.8 °F 29.93 in Calm   3.0 mph 54% 0.00 in 16.00 W/m2
19:15 63.1 °F 46.2 °F 29.93 in Calm   3.0 mph 54% 0.00 in 14.00 W/m2
19:20 62.6 °F 46.7 °F 29.93 in Calm   2.0 mph 56% 0.00 in 11.00 W/m2
19:25 62.0 °F 46.6 °F 29.93 in Calm     57% 0.00 in 9.00 W/m2
19:30 61.3 °F 45.5 °F 29.92 in Calm     56% 0.00 in 5.00 W/m2
19:35 60.8 °F 44.5 °F 29.92 in Calm     55% 0.00 in 0.00 W/m2
19:40 60.4 °F 44.2 °F 29.93 in Calm     55% 0.00 in 0.00 W/m2
19:45 60.0 °F 43.8 °F 29.93 in Calm     55% 0.00 in 0.00 W/m2
19:50 59.7 °F 43.0 °F 29.93 in Calm     54% 0.00 in 0.00 W/m2
19:55 59.4 °F 42.8 °F 29.92 in Calm     54% 0.00 in 0.00 W/m2
20:00 59.1 °F 42.5 °F 29.92 in Calm     54% 0.00 in 0.00 W/m2
20:05 58.9 °F 42.3 °F 29.92 in Calm     54% 0.00 in 0.00 W/m2
20:10 58.7 °F 41.6 °F 29.92 in Calm     53% 0.00 in 0.00 W/m2
20:15 58.4 °F 41.8 °F 29.92 in Calm     54% 0.00 in 0.00 W/m2
20:20 58.2 °F 42.1 °F 29.92 in Calm     55% 0.00 in 0.00 W/m2
20:25 57.9 °F 42.8 °F 29.92 in Calm     57% 0.00 in 0.00 W/m2
20:30 57.7 °F 42.1 °F 29.92 in Calm     56% 0.00 in 0.00 W/m2
20:35 57.5 °F 42.8 °F 29.93 in Calm     58% 0.00 in 0.00 W/m2
20:40 57.2 °F 41.7 °F 29.92 in Calm     56% 0.00 in 0.00 W/m2
20:50 56.9 °F 41.4 °F 29.93 in Calm     56% 0.00 in 0.00 W/m2
20:55 56.8 °F 42.2 °F 29.93 in Calm     58% 0.00 in 0.00 W/m2
21:00 56.8 °F 42.6 °F 29.92 in Calm     59% 0.00 in 0.00 W/m2
21:05 56.6 °F 41.6 °F 29.93 in Calm     57% 0.00 in 0.00 W/m2
21:10 56.4 °F 41.8 °F 29.93 in Calm     58% 0.00 in 0.00 W/m2
21:15 56.2 °F 42.1 °F 29.93 in Calm     59% 0.00 in 0.00 W/m2
21:20 56.0 °F 41.5 °F 29.93 in Calm     58% 0.00 in 0.00 W/m2
21:25 55.8 °F 41.7 °F 29.93 in Calm     59% 0.00 in 0.00 W/m2
21:30 55.7 °F 41.6 °F 29.93 in Calm     59% 0.00 in 0.00 W/m2
21:36 55.6 °F 41.5 °F 29.93 in Calm     59% 0.00 in 0.00 W/m2
21:41 55.5 °F 41.0 °F 29.94 in Calm     58% 0.00 in 0.00 W/m2
21:46 55.4 °F 40.0 °F 29.93 in Calm     56% 0.00 in 0.00 W/m2
21:51 55.4 °F 40.0 °F 29.93 in Calm     56% 0.00 in 0.00 W/m2
21:56 55.3 °F 40.8 °F 29.93 in Calm     58% 0.00 in 0.00 W/m2
22:01 55.2 °F 42.0 °F 29.93 in Calm     61% 0.00 in 0.00 W/m2
22:06 55.1 °F 42.3 °F 29.93 in Calm     62% 0.00 in 0.00 W/m2
22:11 54.9 °F 42.6 °F 29.93 in Calm     63% 0.00 in 0.00 W/m2
22:16 54.8 °F 42.5 °F 29.93 in Calm     63% 0.00 in 0.00 W/m2
22:21 54.7 °F 43.2 °F 29.93 in Calm     65% 0.00 in 0.00 W/m2
22:26 54.6 °F 43.5 °F 29.93 in Calm     66% 0.00 in 0.00 W/m2
22:31 54.6 °F 43.5 °F 29.93 in Calm     66% 0.00 in 0.00 W/m2
22:36 54.5 °F 43.8 °F 29.93 in Calm     67% 0.00 in 0.00 W/m2
22:41 54.4 °F 44.1 °F 29.93 in Calm     68% 0.00 in 0.00 W/m2
22:46 54.4 °F 44.1 °F 29.93 in Calm     68% 0.00 in 0.00 W/m2
22:51 54.4 °F 44.1 °F 29.93 in Calm     68% 0.00 in 0.00 W/m2
22:56 54.3 °F 44.4 °F 29.93 in Calm     69% 0.00 in 0.00 W/m2
23:01 54.2 °F 44.3 °F 29.93 in Calm     69% 0.00 in 0.00 W/m2
23:06 54.1 °F 43.8 °F 29.93 in Calm     68% 0.00 in 0.00 W/m2
23:11 54.0 °F 43.7 °F 29.93 in East 1.0 mph 2.0 mph 68% 0.00 in 0.00 W/m2
23:16 53.9 °F 43.6 °F 29.93 in ESE 1.0 mph 5.0 mph 68% 0.00 in 0.00 W/m2
23:21 53.8 °F 43.5 °F 29.92 in Calm   5.0 mph 68% 0.00 in 0.00 W/m2
23:26 53.7 °F 43.0 °F 29.92 in ESE 1.0 mph 1.0 mph 67% 0.00 in 0.00 W/m2
23:31 53.6 °F 43.3 °F 29.92 in Calm   6.0 mph 68% 0.00 in 0.00 W/m2
23:36 53.5 °F 43.2 °F 29.92 in ESE 1.0 mph 7.0 mph 68% 0.00 in 0.00 W/m2
23:41 53.4 °F 43.1 °F 29.92 in ESE 1.0 mph 6.0 mph 68% 0.00 in 0.00 W/m2
23:46 53.4 °F 43.1 °F 29.92 in ESE 2.0 mph 6.0 mph 68% 0.00 in 0.00 W/m2
23:51 53.3 °F 43.0 °F 29.92 in ESE 2.0 mph 2.0 mph 68% 0.00 in 0.00 W/m2
23:56 53.2 °F 42.9 °F 29.92 in Calm   5.0 mph 68% 0.00 in 0.00 W/m2
Foresthill Weather
 WU-history PHP script courtesy of   Juneau County Weather.
powered by Cumulus v1.9.3 (1059)
Ambient Weather VWS v14.00
Top Contact Website Map Copyright © 2007 - 2018 Foresthillweather.com Never base important decisions on this or any weather information obtained from the Internet